createdAt,value
2019-03-04T00:01:04.748Z,61.50
2019-03-04T00:03:34.947Z,58.50
2019-03-04T00:06:05.014Z,58.33
2019-03-04T00:08:36.025Z,55.75
2019-03-04T00:11:06.130Z,59.23
2019-03-04T00:13:36.189Z,56.95
2019-03-04T00:16:06.202Z,53.33
2019-03-04T00:18:36.191Z,55.35
2019-03-04T00:21:06.386Z,57.67
2019-03-04T00:23:36.460Z,55.98
2019-03-04T00:26:06.612Z,57.45
2019-03-04T00:28:36.548Z,56.10
2019-03-04T00:31:06.505Z,54.23
2019-03-04T00:33:36.520Z,58.33
2019-03-04T00:36:06.517Z,56.63
2019-03-04T00:38:36.556Z,55.30
2019-03-04T00:41:06.555Z,53.68
2019-03-04T00:43:36.645Z,55.00
2019-03-04T00:46:06.820Z,54.75
2019-03-04T00:48:36.735Z,55.00
2019-03-04T00:51:06.856Z,55.15
2019-03-04T00:53:36.879Z,56.63
2019-03-04T00:56:06.964Z,59.45
2019-03-04T00:58:36.985Z,53.15
2019-03-04T01:01:07.061Z,55.17
2019-03-04T01:03:37.060Z,54.25
2019-03-04T01:06:07.135Z,55.83
2019-03-04T01:08:37.117Z,63.52
2019-03-04T01:11:08.232Z,63.58
2019-03-04T01:13:39.461Z,63.33
2019-03-04T01:16:09.481Z,70.57
2019-03-04T01:18:39.471Z,66.50
2019-03-04T01:21:09.501Z,67.17
2019-03-04T01:23:39.587Z,66.92
2019-03-04T01:26:09.659Z,69.77
2019-03-04T01:28:39.706Z,68.85
2019-03-04T01:31:09.657Z,62.67
2019-03-04T01:33:39.689Z,65.57
2019-03-04T01:36:09.770Z,64.70
2019-03-04T01:38:39.849Z,63.85
2019-03-04T01:41:11.017Z,58.92
2019-03-04T01:43:41.192Z,56.90
2019-03-04T01:46:11.214Z,56.88
2019-03-04T01:48:41.193Z,59.50
2019-03-04T01:51:11.314Z,65.92
2019-03-04T01:53:41.248Z,63.80
2019-03-04T01:56:11.346Z,68.72
2019-03-04T01:58:41.374Z,69.65
2019-03-04T02:01:11.376Z,69.45
2019-03-04T02:03:41.452Z,67.62
2019-03-04T02:06:11.497Z,65.97
2019-03-04T02:08:41.421Z,61.13
2019-03-04T02:11:11.525Z,58.58
2019-03-04T02:13:42.675Z,71.97
2019-03-04T02:16:12.665Z,64.35
2019-03-04T02:18:42.858Z,59.40
2019-03-04T02:21:12.924Z,65.12
2019-03-04T02:23:42.911Z,62.43
2019-03-04T02:26:15.373Z,61.23
2019-03-04T02:28:45.504Z,60.52
2019-03-04T02:31:15.661Z,60.25
2019-03-04T02:33:45.544Z,64.10
2019-03-04T02:36:15.466Z,64.90
2019-03-04T02:38:45.504Z,63.33
2019-03-04T02:41:15.521Z,57.78
2019-03-04T02:43:45.620Z,58.75
2019-03-04T02:46:15.708Z,58.13
2019-03-04T02:48:45.716Z,70.10
2019-03-04T02:51:15.817Z,60.60
2019-03-04T02:53:46.886Z,62.27
2019-03-04T02:56:16.839Z,66.35
2019-03-04T02:58:46.855Z,59.25
2019-03-04T03:01:17.160Z,62.35
2019-03-04T03:03:47.169Z,80.00
2019-03-04T03:06:17.191Z,52.20
2019-03-04T03:08:47.247Z,71.25
2019-03-04T03:11:17.368Z,58.60
2019-03-04T03:13:47.532Z,60.25
2019-03-04T03:16:17.625Z,59.20
2019-03-04T03:18:47.744Z,63.52
2019-03-04T03:21:17.744Z,59.58
2019-03-04T03:23:47.798Z,61.28
2019-03-04T03:26:17.884Z,73.45
2019-03-04T03:28:47.943Z,72.32
2019-03-04T03:31:17.902Z,83.10
2019-03-04T03:33:48.000Z,78.42
2019-03-04T03:36:18.051Z,60.33
2019-03-04T03:38:48.099Z,60.58
2019-03-04T03:41:18.092Z,76.80
2019-03-04T03:43:48.088Z,58.33
2019-03-04T03:46:18.177Z,62.23
2019-03-04T03:48:48.317Z,64.03
2019-03-04T03:51:18.456Z,77.32
2019-03-04T03:53:48.533Z,65.80
2019-03-04T03:56:18.622Z,80.67
2019-03-04T03:58:48.679Z,70.20
2019-03-04T04:01:18.838Z,58.68
2019-03-04T04:03:48.859Z,64.80
2019-03-04T04:06:18.789Z,61.37
2019-03-04T04:08:48.866Z,66.57
2019-03-04T04:11:18.934Z,63.02
2019-03-04T04:13:48.998Z,65.03
2019-03-04T04:16:19.003Z,62.40
2019-03-04T04:18:49.068Z,61.60
2019-03-04T04:21:19.138Z,62.83
2019-03-04T04:23:49.227Z,61.85
2019-03-04T04:26:21.724Z,63.28
2019-03-04T04:28:53.427Z,68.85
2019-03-04T04:31:26.649Z,64.90
2019-03-04T04:33:56.765Z,66.30
2019-03-04T04:36:27.858Z,63.38
2019-03-04T04:38:57.910Z,83.25
2019-03-04T04:41:27.973Z,82.45
2019-03-04T04:43:58.152Z,81.45
2019-03-04T04:46:47.813Z,77.95
2019-03-04T04:49:17.906Z,75.10
2019-03-04T04:51:47.993Z,73.30
2019-03-04T04:54:18.075Z,69.87
2019-03-04T04:56:48.162Z,72.37
2019-03-04T04:59:18.099Z,73.83
2019-03-04T05:01:48.086Z,77.05
2019-03-04T05:04:18.165Z,70.92
2019-03-04T05:06:48.259Z,73.20
2019-03-04T05:09:18.294Z,72.22
2019-03-04T05:11:48.366Z,70.52
2019-03-04T05:14:18.400Z,71.28
2019-03-04T05:16:48.585Z,73.72
2019-03-04T05:19:18.646Z,69.40
2019-03-04T05:21:48.715Z,70.08
2019-03-04T05:24:18.614Z,67.72
2019-03-04T05:26:48.786Z,66.57
2019-03-04T05:29:18.775Z,66.92
2019-03-04T05:31:48.865Z,73.10
2019-03-04T05:34:18.881Z,72.60
2019-03-04T05:36:49.017Z,87.30
2019-03-04T05:39:19.102Z,80.57
2019-03-04T05:41:49.181Z,81.87
2019-03-04T05:44:19.306Z,78.85
2019-03-04T05:46:49.179Z,89.10
2019-03-04T05:49:19.250Z,87.92
2019-03-04T05:51:49.275Z,91.22
2019-03-04T05:54:19.263Z,91.92
2019-03-04T05:56:49.348Z,99.32
2019-03-04T05:59:20.210Z,106.07
2019-03-04T06:01:53.612Z,113.75
2019-03-04T06:04:23.685Z,119.13
2019-03-04T06:07:04.426Z,117.77
2019-03-04T06:09:34.395Z,118.10
2019-03-04T06:12:04.543Z,116.42
2019-03-04T06:14:34.557Z,121.22
2019-03-04T06:17:04.661Z,116.47
2019-03-04T06:19:34.597Z,117.77
2019-03-04T06:22:04.641Z,114.55
2019-03-04T06:24:34.725Z,109.72
2019-03-04T06:27:04.734Z,110.92
2019-03-04T06:29:34.896Z,105.92
2019-03-04T06:32:05.734Z,99.40
2019-03-04T06:34:35.832Z,95.32
2019-03-04T06:37:05.862Z,95.20
2019-03-04T06:39:36.020Z,93.60
2019-03-04T06:42:06.069Z,96.53
2019-03-04T06:44:36.244Z,100.75
2019-03-04T06:47:06.248Z,100.55
2019-03-04T06:49:36.312Z,102.80
2019-03-04T06:52:06.412Z,112.95
2019-03-04T06:54:39.591Z,115.37
2019-03-04T06:57:12.795Z,124.75
2019-03-04T06:59:48.915Z,126.95
2019-03-04T07:02:45.213Z,121.85
2019-03-04T07:05:28.759Z,128.70
2019-03-04T07:07:58.915Z,136.90
2019-03-04T07:10:28.913Z,135.78
2019-03-04T07:12:58.940Z,132.20
2019-03-04T07:15:28.912Z,136.77
2019-03-04T07:17:58.977Z,154.78
2019-03-04T07:20:29.048Z,163.68
2019-03-04T07:22:59.073Z,150.87
2019-03-04T07:25:29.164Z,140.35
2019-03-04T07:27:59.364Z,134.18
2019-03-04T07:30:29.410Z,129.65
2019-03-04T07:32:59.490Z,127.12
2019-03-04T07:35:29.648Z,124.40
2019-03-04T07:38:23.704Z,129.15
2019-03-04T07:40:53.792Z,125.90
2019-03-04T07:43:23.854Z,133.65
2019-03-04T07:45:53.919Z,132.32
2019-03-04T07:48:25.864Z,128.95
2019-03-04T07:50:55.995Z,150.10
2019-03-04T07:53:26.071Z,151.53
2019-03-04T07:55:56.158Z,150.80
2019-03-04T07:58:26.255Z,145.53
2019-03-04T08:00:56.473Z,139.68
2019-03-04T08:03:26.509Z,126.33
2019-03-04T08:05:57.796Z,124.67
2019-03-04T08:08:27.874Z,114.55
2019-03-04T08:11:30.887Z,108.97
2019-03-04T08:14:10.039Z,103.42
2019-03-04T08:16:40.157Z,105.55
2019-03-04T08:19:10.207Z,105.37
2019-03-04T08:21:40.274Z,105.55
2019-03-04T08:24:10.307Z,164.07
2019-03-04T08:26:40.382Z,148.38
2019-03-04T08:29:10.387Z,119.53
2019-03-04T08:31:41.564Z,122.58
2019-03-04T08:34:11.772Z,139.68
2019-03-04T08:36:41.924Z,121.57
2019-03-04T08:39:11.985Z,120.00
2019-03-04T08:41:42.002Z,123.75
2019-03-04T08:44:12.088Z,120.90
2019-03-04T08:46:42.014Z,120.45
2019-03-04T08:49:12.037Z,119.70
2019-03-04T08:51:42.153Z,117.13
2019-03-04T08:54:12.333Z,103.85
2019-03-04T08:56:42.343Z,108.03
2019-03-04T08:59:12.417Z,105.83
2019-03-04T09:01:42.480Z,103.72
2019-03-04T09:04:12.637Z,106.65
2019-03-04T09:06:42.791Z,105.47
2019-03-04T09:09:12.880Z,108.27
2019-03-04T09:11:42.804Z,107.58
2019-03-04T09:14:12.858Z,110.80
2019-03-04T09:16:42.859Z,107.67
2019-03-04T09:19:12.867Z,102.00
2019-03-04T09:21:42.917Z,96.55
2019-03-04T09:24:13.037Z,95.45
2019-03-04T09:26:43.100Z,91.17
2019-03-04T09:29:13.234Z,90.62
2019-03-04T09:31:43.189Z,88.25
2019-03-04T09:34:13.237Z,88.12
2019-03-04T09:36:43.374Z,84.80
2019-03-04T09:39:14.432Z,93.15
2019-03-04T09:41:44.593Z,97.40
2019-03-04T09:44:14.574Z,93.42
2019-03-04T09:46:44.655Z,89.42
2019-03-04T09:49:14.775Z,100.35
2019-03-04T09:51:44.781Z,106.85
2019-03-04T09:54:14.788Z,107.87
2019-03-04T09:56:44.836Z,111.50
2019-03-04T09:59:14.826Z,109.00
2019-03-04T10:01:48.546Z,108.63
2019-03-04T10:04:21.807Z,112.28
2019-03-04T10:07:00.963Z,106.92
2019-03-04T10:09:55.377Z,105.30
2019-03-04T10:12:53.892Z,101.90
2019-03-04T10:15:47.763Z,105.58
2019-03-04T10:18:20.938Z,98.67
2019-03-04T10:21:15.634Z,100.75
2019-03-04T10:23:48.831Z,99.75
2019-03-04T10:26:38.977Z,97.92
2019-03-04T10:29:26.906Z,91.37
2019-03-04T10:34:58.388Z,88.05
2019-03-04T10:37:43.757Z,86.35
2019-03-04T10:40:51.959Z,92.12
2019-03-04T10:43:43.392Z,87.55
2019-03-04T10:46:22.472Z,88.70
2019-03-04T10:48:52.626Z,82.62
2019-03-04T10:51:22.610Z,78.10
2019-03-04T10:53:52.748Z,76.97
2019-03-04T10:56:22.747Z,77.80
2019-03-04T10:58:52.741Z,72.58
2019-03-04T11:01:30.207Z,75.92
2019-03-04T11:03:54.375Z,75.67
2019-03-04T11:06:24.413Z,76.55
2019-03-04T11:08:54.459Z,75.17
2019-03-04T11:11:29.767Z,78.33
2019-03-04T11:13:57.149Z,82.37
2019-03-04T11:16:27.299Z,81.02
2019-03-04T11:18:57.361Z,84.13
2019-03-04T11:21:31.572Z,89.40
2019-03-04T11:24:02.797Z,86.97
2019-03-04T11:26:32.841Z,84.15
2019-03-04T11:29:02.973Z,87.00
2019-03-04T11:31:33.165Z,87.35
2019-03-04T11:34:03.229Z,84.17
2019-03-04T11:36:33.244Z,85.57
2019-03-04T11:39:22.877Z,82.42
2019-03-04T11:41:53.013Z,83.52
2019-03-04T11:44:23.079Z,82.37
2019-03-04T11:46:53.098Z,83.27
2019-03-04T11:49:23.179Z,82.85
2019-03-04T11:51:53.217Z,81.20
2019-03-04T11:54:23.299Z,86.40
2019-03-04T11:56:53.418Z,85.15
2019-03-04T11:59:23.411Z,82.40
2019-03-04T12:01:53.426Z,85.80
2019-03-04T12:04:23.498Z,81.92
2019-03-04T12:06:53.494Z,84.20
2019-03-04T12:09:24.431Z,81.97
2019-03-04T12:11:54.397Z,77.85
2019-03-04T12:14:24.561Z,80.05
2019-03-04T12:16:54.718Z,77.47
2019-03-04T12:19:24.908Z,79.40
2019-03-04T12:21:54.929Z,73.50
2019-03-04T12:24:24.859Z,74.53
2019-03-04T12:26:54.995Z,72.37
2019-03-04T12:29:24.985Z,73.12
2019-03-04T12:31:56.620Z,71.30
2019-03-04T12:34:26.607Z,70.28
2019-03-04T12:36:56.605Z,71.60
2019-03-04T12:39:26.729Z,70.78
2019-03-04T12:41:56.744Z,70.67
2019-03-04T12:44:26.809Z,72.85
2019-03-04T12:46:56.803Z,71.40
2019-03-04T12:49:26.959Z,71.60
2019-03-04T12:51:56.974Z,77.15
2019-03-04T12:54:26.954Z,83.03
2019-03-04T12:56:57.027Z,80.55
2019-03-04T12:59:27.012Z,80.97
2019-03-04T13:01:57.070Z,81.72
2019-03-04T13:04:27.160Z,81.40
2019-03-04T13:06:57.455Z,81.92
2019-03-04T13:09:27.497Z,83.60
2019-03-04T13:11:57.502Z,81.50
2019-03-04T13:14:27.447Z,81.00
2019-03-04T13:16:57.452Z,78.20
2019-03-04T13:19:27.470Z,83.20
2019-03-04T13:21:57.499Z,80.87
2019-03-04T13:24:27.564Z,85.83
2019-03-04T13:26:57.566Z,81.65
2019-03-04T13:29:27.734Z,83.82
2019-03-04T13:31:57.737Z,84.83
2019-03-04T13:34:27.838Z,82.88
2019-03-04T13:36:57.889Z,85.57
2019-03-04T13:39:27.805Z,84.00
2019-03-04T13:41:57.887Z,83.47
2019-03-04T13:44:27.805Z,82.33
2019-03-04T13:46:57.881Z,84.92
2019-03-04T13:49:27.799Z,80.17
2019-03-04T13:51:57.790Z,83.72
2019-03-04T13:54:27.884Z,86.05
2019-03-04T13:56:57.978Z,84.03
2019-03-04T13:59:28.140Z,85.15
2019-03-04T14:01:58.214Z,86.50
2019-03-04T14:04:28.163Z,80.53
2019-03-04T14:06:58.241Z,84.17
2019-03-04T14:09:28.364Z,83.75
2019-03-04T14:11:58.362Z,84.67
2019-03-04T14:14:28.285Z,85.50
2019-03-04T14:16:58.446Z,85.42
2019-03-04T14:19:28.451Z,84.97
2019-03-04T14:21:58.640Z,82.92
2019-03-04T14:24:28.795Z,87.57
2019-03-04T14:26:58.865Z,88.52
2019-03-04T14:29:28.824Z,89.70
2019-03-04T14:31:58.664Z,86.22
2019-03-04T14:34:28.770Z,89.17
2019-03-04T14:36:58.864Z,88.47
2019-03-04T14:39:31.838Z,88.75
2019-03-04T14:42:01.917Z,91.30
2019-03-04T14:44:31.966Z,89.87
2019-03-04T14:47:02.103Z,87.02
2019-03-04T14:49:33.174Z,91.47
2019-03-04T14:52:03.197Z,87.62
2019-03-04T14:54:33.227Z,90.50
2019-03-04T14:57:03.378Z,92.05
2019-03-04T14:59:33.481Z,90.47
2019-03-04T15:02:03.583Z,92.75
2019-03-04T15:04:33.594Z,91.72
2019-03-04T15:07:03.695Z,93.25
2019-03-04T15:09:33.706Z,94.50
2019-03-04T15:12:03.794Z,91.00
2019-03-04T15:14:33.975Z,92.45
2019-03-04T15:17:03.927Z,92.95
2019-03-04T15:19:34.056Z,91.00
2019-03-04T15:22:04.128Z,88.60
2019-03-04T15:24:35.193Z,85.92
2019-03-04T15:27:05.260Z,85.22
2019-03-04T15:29:35.358Z,81.45
2019-03-04T15:32:05.358Z,80.42
2019-03-04T15:34:35.533Z,78.52
2019-03-04T15:37:05.613Z,81.95
2019-03-04T15:39:35.789Z,79.95
2019-03-04T15:42:05.864Z,79.77
2019-03-04T15:44:35.887Z,78.50
2019-03-04T15:47:05.904Z,76.45
2019-03-04T15:49:35.959Z,76.07
2019-03-04T15:52:06.898Z,78.00
2019-03-04T15:54:36.987Z,76.50
2019-03-04T15:57:07.504Z,76.33
2019-03-04T15:59:37.477Z,72.65
2019-03-04T16:02:07.526Z,72.42
2019-03-04T16:04:37.696Z,69.67
2019-03-04T16:07:08.999Z,73.50
2019-03-04T16:09:38.982Z,71.35
2019-03-04T16:12:11.685Z,73.87
2019-03-04T16:14:41.679Z,75.30
2019-03-04T16:17:11.774Z,78.35
2019-03-04T16:19:41.942Z,76.37
2019-03-04T16:22:12.073Z,73.05
2019-03-04T16:24:42.141Z,71.62
2019-03-04T16:27:13.780Z,74.15
2019-03-04T16:29:43.864Z,76.92
2019-03-04T16:32:13.938Z,76.02
2019-03-04T16:34:43.937Z,83.27
2019-03-04T16:37:13.788Z,89.45
2019-03-04T16:39:43.727Z,83.22
2019-03-04T16:42:13.710Z,82.50
2019-03-04T16:44:43.748Z,80.75
2019-03-04T16:47:13.876Z,77.87
2019-03-04T16:49:45.570Z,80.38
2019-03-04T16:52:16.128Z,82.62
2019-03-04T16:54:46.890Z,85.65
2019-03-04T16:57:18.601Z,84.67
2019-03-04T16:59:48.867Z,84.77
2019-03-04T17:02:20.001Z,85.35
2019-03-04T17:04:50.043Z,79.45
2019-03-04T17:07:20.058Z,78.97
2019-03-04T17:09:50.314Z,83.82
2019-03-04T17:12:20.472Z,86.63
2019-03-04T17:14:51.726Z,82.37
2019-03-04T17:17:21.725Z,87.88
2019-03-04T17:19:51.701Z,89.97
2019-03-04T17:22:21.708Z,91.57
2019-03-04T17:24:52.297Z,93.72
2019-03-04T17:27:22.499Z,90.42
2019-03-04T17:29:52.644Z,96.40
2019-03-04T17:32:22.640Z,101.97
2019-03-04T17:34:52.737Z,99.28
2019-03-04T17:37:22.956Z,99.47
2019-03-04T17:39:53.533Z,94.80
2019-03-04T17:42:23.753Z,100.60
2019-03-04T17:44:54.021Z,97.10
2019-03-04T17:47:24.186Z,91.92
2019-03-04T17:49:54.320Z,88.72
2019-03-04T17:52:24.517Z,85.55
2019-03-04T17:54:54.519Z,83.95
2019-03-04T17:57:24.631Z,80.00
2019-03-04T17:59:55.175Z,81.20
2019-03-04T18:02:25.470Z,83.35
2019-03-04T18:04:55.628Z,82.12
2019-03-04T18:07:26.919Z,84.07
2019-03-04T18:09:57.126Z,81.87
2019-03-04T18:12:27.185Z,76.92
2019-03-04T18:14:57.314Z,78.62
2019-03-04T18:17:27.479Z,78.72
2019-03-04T18:19:57.481Z,77.22
2019-03-04T18:22:27.666Z,80.97
2019-03-04T18:24:57.819Z,78.07
2019-03-04T18:27:27.886Z,78.12
2019-03-04T18:30:04.357Z,77.75
2019-03-04T18:32:48.442Z,78.78
2019-03-04T18:35:24.793Z,81.50
2019-03-04T18:37:57.912Z,79.77
2019-03-04T18:40:49.375Z,80.62
2019-03-04T18:43:25.833Z,81.95
2019-03-04T18:46:25.135Z,83.33
2019-03-04T18:48:57.520Z,85.47
2019-03-04T18:51:28.145Z,84.67
2019-03-04T18:54:00.496Z,88.42
2019-03-04T18:56:30.554Z,87.10
2019-03-04T18:59:00.638Z,87.82
2019-03-04T19:01:30.716Z,86.17
2019-03-04T19:04:00.967Z,83.33
2019-03-04T19:06:31.123Z,83.87
2019-03-04T19:09:01.270Z,83.62
2019-03-04T19:11:32.896Z,84.28
2019-03-04T19:14:03.037Z,80.72
2019-03-04T19:16:33.575Z,85.53
2019-03-04T19:19:04.202Z,81.08
2019-03-04T19:21:34.313Z,82.22
2019-03-04T19:24:04.446Z,80.72
2019-03-04T19:26:34.684Z,84.58
2019-03-04T19:29:04.972Z,85.22
2019-03-04T19:31:35.170Z,84.67
2019-03-04T19:34:05.476Z,80.75
2019-03-04T19:36:35.429Z,81.82
2019-03-04T19:39:06.847Z,84.30
2019-03-04T19:41:37.494Z,87.90
2019-03-04T19:44:07.538Z,88.82
2019-03-04T19:46:37.611Z,91.53
2019-03-04T19:49:07.953Z,91.67
2019-03-04T19:51:37.974Z,118.33
2019-03-04T19:54:10.168Z,236.55
2019-03-04T19:56:40.126Z,478.85
2019-03-04T19:59:10.308Z,551.15
2019-03-04T20:01:40.338Z,254.53
2019-03-04T20:04:12.011Z,183.07
2019-03-04T20:06:42.029Z,125.38
2019-03-04T20:09:12.292Z,109.63
2019-03-04T20:12:01.885Z,127.00
2019-03-04T20:14:31.916Z,155.22
2019-03-04T20:17:02.082Z,141.43
2019-03-04T20:19:33.694Z,114.67
2019-03-04T20:22:03.670Z,108.63
2019-03-04T20:24:33.858Z,106.78
2019-03-04T20:27:05.013Z,103.12
2019-03-04T20:29:35.603Z,102.02
2019-03-04T20:32:05.857Z,97.97
2019-03-04T20:34:36.065Z,101.45
2019-03-04T20:37:06.198Z,86.28
2019-03-04T20:39:36.434Z,92.97
2019-03-04T20:42:06.722Z,95.28
2019-03-04T20:44:36.900Z,97.70
2019-03-04T20:47:06.925Z,100.40
2019-03-04T20:49:37.162Z,100.50
2019-03-04T20:52:07.285Z,100.40
2019-03-04T20:54:37.525Z,100.07
2019-03-04T20:57:08.608Z,101.60
2019-03-04T20:59:38.722Z,93.67
2019-03-04T21:02:08.833Z,103.20
2019-03-04T21:04:38.899Z,100.80
2019-03-04T21:07:09.084Z,105.20
2019-03-04T21:09:39.387Z,104.63
2019-03-04T21:12:09.541Z,106.75
2019-03-04T21:14:39.804Z,100.33
2019-03-04T21:17:09.785Z,103.67
2019-03-04T21:19:40.072Z,105.58
2019-03-04T21:22:11.115Z,103.35
2019-03-04T21:24:41.199Z,102.90
2019-03-04T21:27:12.449Z,103.97
2019-03-04T21:29:48.727Z,101.12
2019-03-04T21:32:29.084Z,109.85
2019-03-04T21:35:21.685Z,123.15
2019-03-04T21:37:52.247Z,114.65
2019-03-04T21:40:25.559Z,105.45
2019-03-04T21:42:59.856Z,109.60
2019-03-04T21:45:51.288Z,100.42
2019-03-04T21:48:27.125Z,99.10
2019-03-04T21:51:00.405Z,97.75
2019-03-04T21:53:37.258Z,100.20
2019-03-04T21:56:28.935Z,96.32
2019-03-04T21:58:59.146Z,96.50
2019-03-04T22:01:50.732Z,97.53
2019-03-04T22:04:21.662Z,104.17
2019-03-04T22:06:51.750Z,105.97
2019-03-04T22:09:21.999Z,108.85
2019-03-04T22:11:52.140Z,109.65
2019-03-04T22:14:22.353Z,113.40
2019-03-04T22:16:52.547Z,108.97
2019-03-04T22:19:23.625Z,106.60
2019-03-04T22:21:53.700Z,106.78
2019-03-04T22:24:23.802Z,104.27
2019-03-04T22:26:57.120Z,109.45
2019-03-04T22:29:27.113Z,106.60
2019-03-04T22:31:58.383Z,106.40
2019-03-04T22:34:28.378Z,107.15
2019-03-04T22:36:58.454Z,103.53
2019-03-04T22:39:28.499Z,100.40
2019-03-04T22:41:58.697Z,105.12
2019-03-04T22:44:28.812Z,98.60
2019-03-04T22:46:58.992Z,94.62
2019-03-04T22:49:29.085Z,92.65
2019-03-04T22:51:59.251Z,91.42
2019-03-04T22:54:29.248Z,94.32
2019-03-04T22:56:59.406Z,93.85
2019-03-04T22:59:29.537Z,93.15
2019-03-04T23:01:59.532Z,92.17
2019-03-04T23:04:29.450Z,93.45
2019-03-04T23:07:02.528Z,87.85
2019-03-04T23:09:51.072Z,88.62
2019-03-04T23:12:33.485Z,89.80
2019-03-04T23:15:05.423Z,155.10
2019-03-04T23:17:35.582Z,210.95
2019-03-04T23:20:07.091Z,200.68
2019-03-04T23:22:37.167Z,238.55
2019-03-04T23:25:10.371Z,227.50
2019-03-04T23:27:40.429Z,116.20
2019-03-04T23:30:13.588Z,96.30
2019-03-04T23:32:43.739Z,96.95
2019-03-04T23:35:13.903Z,92.70
2019-03-04T23:37:43.882Z,89.65
2019-03-04T23:40:15.189Z,88.50
2019-03-04T23:42:45.269Z,87.12
2019-03-04T23:45:15.351Z,81.47
2019-03-04T23:47:45.438Z,80.50
2019-03-04T23:50:25.047Z,81.65
2019-03-04T23:52:55.207Z,80.70
2019-03-04T23:55:25.356Z,81.22
2019-03-04T23:57:55.352Z,76.62
